MU-0001 weather

Agalega Island Airstrip
Vingt Cinq, Agalega Islands, Mauritius

Public forecast

Using degrees Celsius for public forecast. Weather courtesy of forecast.io.

Closest aviation weather report (METAR) to Agalega Island Airstrip

Closest report is Arrachart Airport, 446.8 nm (827.4 km) WSW. Retrieved 2020/01/26 07:00 UTC (44 minutes ago):

FMNA 260700Z 00000KT 9999 -RA SCT017 BKN033 25/24 Q1015

Closest aviation forecast (TAF) to Agalega Island Airstrip

Closest forecast is Arrachart Airport, 446.8 nm (827.4 km) WSW. Retrieved 2020/01/26 06:03 UTC (2 hours ago):

TAF FMNA 260500Z 2606/2706 14006KT 9999 SCT020CB BKN040 TEMPO 2606/2621 4000 TSRA